sensor_id;sensor_type;location;lat;lon;timestamp;temperature;humidity
13174;DHT22;6652;48.802;9.190;2023-04-06T00:01:03;2.50;95.10
13174;DHT22;6652;48.802;9.190;2023-04-06T00:03:31;2.50;95.20
13174;DHT22;6652;48.802;9.190;2023-04-06T00:05:58;2.50;95.40
13174;DHT22;6652;48.802;9.190;2023-04-06T00:08:25;2.50;95.40
13174;DHT22;6652;48.802;9.190;2023-04-06T00:10:52;2.50;95.50
13174;DHT22;6652;48.802;9.190;2023-04-06T00:13:19;2.50;95.60
13174;DHT22;6652;48.802;9.190;2023-04-06T00:15:46;2.30;95.50
13174;DHT22;6652;48.802;9.190;2023-04-06T00:18:14;2.40;95.70
13174;DHT22;6652;48.802;9.190;2023-04-06T00:20:41;2.40;95.90
13174;DHT22;6652;48.802;9.190;2023-04-06T00:23:08;2.40;96.00
13174;DHT22;6652;48.802;9.190;2023-04-06T00:25:35;2.40;96.20
13174;DHT22;6652;48.802;9.190;2023-04-06T00:28:03;2.40;96.30
13174;DHT22;6652;48.802;9.190;2023-04-06T00:30:30;2.30;96.40
13174;DHT22;6652;48.802;9.190;2023-04-06T00:32:57;2.30;96.50
13174;DHT22;6652;48.802;9.190;2023-04-06T00:35:25;2.30;96.60
13174;DHT22;6652;48.802;9.190;2023-04-06T00:37:52;2.30;96.90
13174;DHT22;6652;48.802;9.190;2023-04-06T00:40:19;2.30;97.00
13174;DHT22;6652;48.802;9.190;2023-04-06T00:42:46;2.30;97.20
13174;DHT22;6652;48.802;9.190;2023-04-06T00:45:13;2.30;97.50
13174;DHT22;6652;48.802;9.190;2023-04-06T00:47:40;2.30;97.60
13174;DHT22;6652;48.802;9.190;2023-04-06T00:50:08;2.30;97.80
13174;DHT22;6652;48.802;9.190;2023-04-06T00:52:36;2.30;97.90
13174;DHT22;6652;48.802;9.190;2023-04-06T00:55:04;2.40;98.10
13174;DHT22;6652;48.802;9.190;2023-04-06T00:57:31;2.30;98.20
13174;DHT22;6652;48.802;9.190;2023-04-06T00:59:58;2.30;98.40
13174;DHT22;6652;48.802;9.190;2023-04-06T01:02:25;2.30;98.60
13174;DHT22;6652;48.802;9.190;2023-04-06T01:04:52;2.20;98.70
13174;DHT22;6652;48.802;9.190;2023-04-06T01:07:19;2.20;99.00
13174;DHT22;6652;48.802;9.190;2023-04-06T01:09:47;2.10;99.00
13174;DHT22;6652;48.802;9.190;2023-04-06T01:12:14;2.10;99.20
13174;DHT22;6652;48.802;9.190;2023-04-06T01:14:41;2.10;99.30
13174;DHT22;6652;48.802;9.190;2023-04-06T01:17:08;2.20;99.60
13174;DHT22;6652;48.802;9.190;2023-04-06T01:19:36;2.00;99.60
13174;DHT22;6652;48.802;9.190;2023-04-06T01:22:04;2.00;99.90
13174;DHT22;6652;48.802;9.190;2023-04-06T01:24:33;2.00;99.90
13174;DHT22;6652;48.802;9.190;2023-04-06T01:27:00;1.90;99.90
13174;DHT22;6652;48.802;9.190;2023-04-06T01:29:27;1.90;99.90
13174;DHT22;6652;48.802;9.190;2023-04-06T01:31:54;1.80;99.90
13174;DHT22;6652;48.802;9.190;2023-04-06T01:34:21;2.10;99.90
13174;DHT22;6652;48.802;9.190;2023-04-06T01:36:48;1.80;99.90
13174;DHT22;6652;48.802;9.190;2023-04-06T01:39:15;1.80;99.90
13174;DHT22;6652;48.802;9.190;2023-04-06T01:41:44;1.80;99.90
13174;DHT22;6652;48.802;9.190;2023-04-06T01:44:12;1.80;99.90
13174;DHT22;6652;48.802;9.190;2023-04-06T01:46:39;1.70;99.90
13174;DHT22;6652;48.802;9.190;2023-04-06T01:49:06;1.70;99.90
13174;DHT22;6652;48.802;9.190;2023-04-06T01:51:33;1.80;99.90
13174;DHT22;6652;48.802;9.190;2023-04-06T01:54:00;1.70;99.90
13174;DHT22;6652;48.802;9.190;2023-04-06T01:56:27;1.70;99.90
13174;DHT22;6652;48.802;9.190;2023-04-06T01:58:55;1.70;99.90
13174;DHT22;6652;48.802;9.190;2023-04-06T02:01:22;1.60;99.90
13174;DHT22;6652;48.802;9.190;2023-04-06T02:03:49;1.90;99.90
13174;DHT22;6652;48.802;9.190;2023-04-06T02:06:16;1.60;99.90
13174;DHT22;6652;48.802;9.190;2023-04-06T02:08:43;1.60;99.90
13174;DHT22;6652;48.802;9.190;2023-04-06T02:11:10;1.50;99.90
13174;DHT22;6652;48.802;9.190;2023-04-06T02:13:37;1.50;99.90
13174;DHT22;6652;48.802;9.190;2023-04-06T02:16:06;1.50;99.90
13174;DHT22;6652;48.802;9.190;2023-04-06T02:18:33;1.50;99.90
13174;DHT22;6652;48.802;9.190;2023-04-06T02:21:00;1.60;99.90
13174;DHT22;6652;48.802;9.190;2023-04-06T02:23:27;1.50;99.90
13174;DHT22;6652;48.802;9.190;2023-04-06T02:25:54;1.40;99.90
13174;DHT22;6652;48.802;9.190;2023-04-06T02:28:21;1.40;99.90
13174;DHT22;6652;48.802;9.190;2023-04-06T02:30:47;1.30;99.90
13174;DHT22;6652;48.802;9.190;2023-04-06T02:33:16;1.30;99.90
13174;DHT22;6652;48.802;9.190;2023-04-06T02:35:44;1.50;99.90
13174;DHT22;6652;48.802;9.190;2023-04-06T02:38:11;1.30;99.90
13174;DHT22;6652;48.802;9.190;2023-04-06T02:40:38;1.30;99.90
13174;DHT22;6652;48.802;9.190;2023-04-06T02:43:05;1.30;99.90
13174;DHT22;6652;48.802;9.190;2023-04-06T02:45:32;1.30;99.90
13174;DHT22;6652;48.802;9.190;2023-04-06T02:47:59;1.20;99.90
13174;DHT22;6652;48.802;9.190;2023-04-06T02:50:28;1.20;99.90
13174;DHT22;6652;48.802;9.190;2023-04-06T02:52:54;1.20;99.90
13174;DHT22;6652;48.802;9.190;2023-04-06T02:55:21;1.10;99.90
13174;DHT22;6652;48.802;9.190;2023-04-06T02:57:48;1.10;99.90
13174;DHT22;6652;48.802;9.190;2023-04-06T03:00:16;1.10;99.90
13174;DHT22;6652;48.802;9.190;2023-04-06T03:02:43;1.10;99.90
13174;DHT22;6652;48.802;9.190;2023-04-06T03:05:10;1.10;99.90
13174;DHT22;6652;48.802;9.190;2023-04-06T03:07:38;1.00;99.90
13174;DHT22;6652;48.802;9.190;2023-04-06T03:10:06;1.10;99.90
13174;DHT22;6652;48.802;9.190;2023-04-06T03:12:34;1.00;99.90
13174;DHT22;6652;48.802;9.190;2023-04-06T03:15:02;1.00;99.90
13174;DHT22;6652;48.802;9.190;2023-04-06T03:17:29;1.00;99.90
13174;DHT22;6652;48.802;9.190;2023-04-06T03:19:55;0.90;99.90
13174;DHT22;6652;48.802;9.190;2023-04-06T03:22:22;0.90;99.90
13174;DHT22;6652;48.802;9.190;2023-04-06T03:24:51;0.90;99.90
13174;DHT22;6652;48.802;9.190;2023-04-06T03:27:18;0.80;99.90
13174;DHT22;6652;48.802;9.190;2023-04-06T03:29:45;0.80;99.90
13174;DHT22;6652;48.802;9.190;2023-04-06T03:32:11;0.80;99.90
13174;DHT22;6652;48.802;9.190;2023-04-06T03:34:39;0.80;99.90
13174;DHT22;6652;48.802;9.190;2023-04-06T03:37:06;0.80;99.90
13174;DHT22;6652;48.802;9.190;2023-04-06T03:39:33;0.80;99.90
13174;DHT22;6652;48.802;9.190;2023-04-06T03:42:01;0.70;99.90
13174;DHT22;6652;48.802;9.190;2023-04-06T03:44:28;0.80;99.90
13174;DHT22;6652;48.802;9.190;2023-04-06T03:46:56;0.70;99.90
13174;DHT22;6652;48.802;9.190;2023-04-06T03:49:23;0.70;99.90
13174;DHT22;6652;48.802;9.190;2023-04-06T03:51:50;0.70;99.90
13174;DHT22;6652;48.802;9.190;2023-04-06T03:54:17;0.70;99.90
13174;DHT22;6652;48.802;9.190;2023-04-06T03:56:44;0.70;99.90
13174;DHT22;6652;48.802;9.190;2023-04-06T03:59:12;0.70;99.90
13174;DHT22;6652;48.802;9.190;2023-04-06T04:01:39;0.70;99.90
13174;DHT22;6652;48.802;9.190;2023-04-06T04:04:06;0.70;99.90
13174;DHT22;6652;48.802;9.190;2023-04-06T04:06:33;0.70;99.90
13174;DHT22;6652;48.802;9.190;2023-04-06T04:09:02;0.70;99.90
13174;DHT22;6652;48.802;9.190;2023-04-06T04:11:28;0.70;99.90
13174;DHT22;6652;48.802;9.190;2023-04-06T04:13:55;0.70;99.90
13174;DHT22;6652;48.802;9.190;2023-04-06T04:16:24;0.70;99.90
13174;DHT22;6652;48.802;9.190;2023-04-06T04:18:51;0.60;99.90
13174;DHT22;6652;48.802;9.190;2023-04-06T04:21:18;0.60;99.90
13174;DHT22;6652;48.802;9.190;2023-04-06T04:23:45;0.60;99.90
13174;DHT22;6652;48.802;9.190;2023-04-06T04:26:11;0.60;99.90
13174;DHT22;6652;48.802;9.190;2023-04-06T04:28:38;0.60;99.90
13174;DHT22;6652;48.802;9.190;2023-04-06T04:31:05;0.50;99.90
13174;DHT22;6652;48.802;9.190;2023-04-06T04:33:34;0.50;99.90
13174;DHT22;6652;48.802;9.190;2023-04-06T04:36:01;0.80;99.90
13174;DHT22;6652;48.802;9.190;2023-04-06T04:38:27;0.60;99.90
13174;DHT22;6652;48.802;9.190;2023-04-06T04:40:54;0.50;99.90
13174;DHT22;6652;48.802;9.190;2023-04-06T04:43:21;0.50;99.90
13174;DHT22;6652;48.802;9.190;2023-04-06T04:45:48;0.50;99.90
13174;DHT22;6652;48.802;9.190;2023-04-06T04:48:15;0.60;99.90
13174;DHT22;6652;48.802;9.190;2023-04-06T04:50:43;0.60;99.90
13174;DHT22;6652;48.802;9.190;2023-04-06T04:53:10;0.60;99.90
13174;DHT22;6652;48.802;9.190;2023-04-06T04:55:37;0.50;99.90
13174;DHT22;6652;48.802;9.190;2023-04-06T04:58:04;0.60;99.90
13174;DHT22;6652;48.802;9.190;2023-04-06T05:00:31;0.60;99.90
13174;DHT22;6652;48.802;9.190;2023-04-06T05:02:58;0.70;99.90
13174;DHT22;6652;48.802;9.190;2023-04-06T05:05:25;0.70;99.90
13174;DHT22;6652;48.802;9.190;2023-04-06T05:07:53;0.80;99.90
13174;DHT22;6652;48.802;9.190;2023-04-06T05:10:23;0.90;99.90
13174;DHT22;6652;48.802;9.190;2023-04-06T05:12:50;1.10;99.90
13174;DHT22;6652;48.802;9.190;2023-04-06T05:15:17;1.50;99.90
13174;DHT22;6652;48.802;9.190;2023-04-06T05:17:44;2.00;99.90
13174;DHT22;6652;48.802;9.190;2023-04-06T05:20:11;2.50;99.90
13174;DHT22;6652;48.802;9.190;2023-04-06T05:22:38;3.10;99.90
13174;DHT22;6652;48.802;9.190;2023-04-06T05:25:07;3.70;99.90
13174;DHT22;6652;48.802;9.190;2023-04-06T05:27:34;4.30;99.90
13174;DHT22;6652;48.802;9.190;2023-04-06T05:30:01;4.90;99.90
13174;DHT22;6652;48.802;9.190;2023-04-06T05:32:29;5.40;99.90
13174;DHT22;6652;48.802;9.190;2023-04-06T05:34:57;5.70;99.90
13174;DHT22;6652;48.802;9.190;2023-04-06T05:37:24;6.10;99.90
13174;DHT22;6652;48.802;9.190;2023-04-06T05:39:50;6.60;99.90
13174;DHT22;6652;48.802;9.190;2023-04-06T05:42:19;7.00;99.90
13174;DHT22;6652;48.802;9.190;2023-04-06T05:44:45;7.40;99.50
13174;DHT22;6652;48.802;9.190;2023-04-06T05:47:12;7.90;98.90
13174;DHT22;6652;48.802;9.190;2023-04-06T05:49:40;8.20;97.50
13174;DHT22;6652;48.802;9.190;2023-04-06T05:52:08;8.60;97.10
13174;DHT22;6652;48.802;9.190;2023-04-06T05:54:35;8.90;95.50
13174;DHT22;6652;48.802;9.190;2023-04-06T05:57:02;9.10;94.90
13174;DHT22;6652;48.802;9.190;2023-04-06T05:59:31;9.30;94.00
13174;DHT22;6652;48.802;9.190;2023-04-06T06:01:58;9.60;93.20
13174;DHT22;6652;48.802;9.190;2023-04-06T06:04:26;9.90;91.70
13174;DHT22;6652;48.802;9.190;2023-04-06T06:06:53;10.20;90.80
13174;DHT22;6652;48.802;9.190;2023-04-06T06:09:20;10.60;90.00
13174;DHT22;6652;48.802;9.190;2023-04-06T06:11:48;10.60;88.00
13174;DHT22;6652;48.802;9.190;2023-04-06T06:14:15;10.90;86.70
13174;DHT22;6652;48.802;9.190;2023-04-06T06:16:43;11.10;86.10
13174;DHT22;6652;48.802;9.190;2023-04-06T06:19:10;11.60;84.90
13174;DHT22;6652;48.802;9.190;2023-04-06T06:21:37;12.10;82.30
13174;DHT22;6652;48.802;9.190;2023-04-06T06:24:04;12.50;80.60
13174;DHT22;6652;48.802;9.190;2023-04-06T06:26:31;12.80;78.00
13174;DHT22;6652;48.802;9.190;2023-04-06T06:28:58;12.90;76.90
13174;DHT22;6652;48.802;9.190;2023-04-06T06:31:25;13.30;75.80
13174;DHT22;6652;48.802;9.190;2023-04-06T06:33:53;13.80;74.00
13174;DHT22;6652;48.802;9.190;2023-04-06T06:36:20;14.00;71.30
13174;DHT22;6652;48.802;9.190;2023-04-06T06:38:47;14.10;70.00
13174;DHT22;6652;48.802;9.190;2023-04-06T06:41:14;14.60;68.90
13174;DHT22;6652;48.802;9.190;2023-04-06T06:43:41;14.90;67.10
13174;DHT22;6652;48.802;9.190;2023-04-06T06:46:07;15.10;66.30
13174;DHT22;6652;48.802;9.190;2023-04-06T06:48:34;15.20;64.90
13174;DHT22;6652;48.802;9.190;2023-04-06T06:51:03;15.60;64.20
13174;DHT22;6652;48.802;9.190;2023-04-06T06:53:30;16.00;62.20
13174;DHT22;6652;48.802;9.190;2023-04-06T06:55:57;16.20;60.60
13174;DHT22;6652;48.802;9.190;2023-04-06T06:58:24;16.30;59.70
13174;DHT22;6652;48.802;9.190;2023-04-06T07:00:51;16.40;59.20
13174;DHT22;6652;48.802;9.190;2023-04-06T07:03:22;16.50;58.30
13174;DHT22;6652;48.802;9.190;2023-04-06T07:05:49;16.20;57.90
13174;DHT22;6652;48.802;9.190;2023-04-06T07:08:20;15.80;57.90
13174;DHT22;6652;48.802;9.190;2023-04-06T07:10:47;15.90;58.10
13174;DHT22;6652;48.802;9.190;2023-04-06T07:13:14;16.10;57.90
13174;DHT22;6652;48.802;9.190;2023-04-06T07:15:44;16.50;57.30
13174;DHT22;6652;48.802;9.190;2023-04-06T07:18:11;16.60;56.70
13174;DHT22;6652;48.802;9.190;2023-04-06T07:20:38;16.60;56.40
13174;DHT22;6652;48.802;9.190;2023-04-06T07:23:05;16.50;56.40
13174;DHT22;6652;48.802;9.190;2023-04-06T07:25:34;16.60;56.60
13174;DHT22;6652;48.802;9.190;2023-04-06T07:28:01;17.30;56.50
13174;DHT22;6652;48.802;9.190;2023-04-06T07:30:29;17.90;55.60
13174;DHT22;6652;48.802;9.190;2023-04-06T07:32:57;18.30;54.70
13174;DHT22;6652;48.802;9.190;2023-04-06T07:35:25;18.50;53.30
13174;DHT22;6652;48.802;9.190;2023-04-06T07:37:52;18.50;53.10
13174;DHT22;6652;48.802;9.190;2023-04-06T07:40:19;18.50;52.90
13174;DHT22;6652;48.802;9.190;2023-04-06T07:42:48;18.70;52.70
13174;DHT22;6652;48.802;9.190;2023-04-06T07:45:15;18.80;52.20
13174;DHT22;6652;48.802;9.190;2023-04-06T07:47:42;18.80;52.50
13174;DHT22;6652;48.802;9.190;2023-04-06T07:50:10;18.60;51.70
13174;DHT22;6652;48.802;9.190;2023-04-06T07:52:37;18.60;52.60
13174;DHT22;6652;48.802;9.190;2023-04-06T07:55:05;18.80;52.00
13174;DHT22;6652;48.802;9.190;2023-04-06T07:57:31;18.50;51.80
13174;DHT22;6652;48.802;9.190;2023-04-06T08:00:00;18.80;51.20
13174;DHT22;6652;48.802;9.190;2023-04-06T08:02:27;18.90;51.30
13174;DHT22;6652;48.802;9.190;2023-04-06T08:04:54;19.40;51.20
13174;DHT22;6652;48.802;9.190;2023-04-06T08:07:21;19.80;50.50
13174;DHT22;6652;48.802;9.190;2023-04-06T08:09:48;19.70;50.00
13174;DHT22;6652;48.802;9.190;2023-04-06T08:12:15;19.50;49.80
13174;DHT22;6652;48.802;9.190;2023-04-06T08:14:42;19.90;51.30
13174;DHT22;6652;48.802;9.190;2023-04-06T08:17:10;20.60;50.30
13174;DHT22;6652;48.802;9.190;2023-04-06T08:19:37;20.40;49.40
13174;DHT22;6652;48.802;9.190;2023-04-06T08:22:04;20.70;50.30
13174;DHT22;6652;48.802;9.190;2023-04-06T08:24:31;21.20;49.30
13174;DHT22;6652;48.802;9.190;2023-04-06T08:26:58;21.10;48.00
13174;DHT22;6652;48.802;9.190;2023-04-06T08:29:25;20.70;47.60
13174;DHT22;6652;48.802;9.190;2023-04-06T08:31:52;20.50;49.10
13174;DHT22;6652;48.802;9.190;2023-04-06T08:34:20;20.90;48.70
13174;DHT22;6652;48.802;9.190;2023-04-06T08:36:48;21.40;49.00
13174;DHT22;6652;48.802;9.190;2023-04-06T08:39:15;21.40;47.80
13174;DHT22;6652;48.802;9.190;2023-04-06T08:41:42;21.50;47.40
13174;DHT22;6652;48.802;9.190;2023-04-06T08:44:10;21.80;47.00
13174;DHT22;6652;48.802;9.190;2023-04-06T08:46:37;21.50;46.80
13174;DHT22;6652;48.802;9.190;2023-04-06T08:49:04;21.80;47.60
13174;DHT22;6652;48.802;9.190;2023-04-06T08:51:36;22.20;46.40
13174;DHT22;6652;48.802;9.190;2023-04-06T08:54:03;22.00;45.80
13174;DHT22;6652;48.802;9.190;2023-04-06T08:56:30;21.80;45.30
13174;DHT22;6652;48.802;9.190;2023-04-06T08:58:58;22.00;45.80
13174;DHT22;6652;48.802;9.190;2023-04-06T09:01:27;22.40;45.70
13174;DHT22;6652;48.802;9.190;2023-04-06T09:03:57;22.80;45.40
13174;DHT22;6652;48.802;9.190;2023-04-06T09:06:25;23.10;45.30
13174;DHT22;6652;48.802;9.190;2023-04-06T09:08:54;23.50;44.80
13174;DHT22;6652;48.802;9.190;2023-04-06T09:11:22;23.20;43.40
13174;DHT22;6652;48.802;9.190;2023-04-06T09:13:51;22.90;43.80
13174;DHT22;6652;48.802;9.190;2023-04-06T09:16:18;23.20;43.40
13174;DHT22;6652;48.802;9.190;2023-04-06T09:18:46;23.60;42.80
13174;DHT22;6652;48.802;9.190;2023-04-06T09:21:15;23.80;42.10
13174;DHT22;6652;48.802;9.190;2023-04-06T09:23:42;23.90;41.30
13174;DHT22;6652;48.802;9.190;2023-04-06T09:26:12;23.70;41.00
13174;DHT22;6652;48.802;9.190;2023-04-06T09:28:46;23.90;40.00
13174;DHT22;6652;48.802;9.190;2023-04-06T09:31:14;23.70;38.60
13174;DHT22;6652;48.802;9.190;2023-04-06T09:33:43;24.30;38.50
13174;DHT22;6652;48.802;9.190;2023-04-06T09:36:10;24.40;36.70
13174;DHT22;6652;48.802;9.190;2023-04-06T09:38:51;24.10;36.20
13174;DHT22;6652;48.802;9.190;2023-04-06T09:41:23;23.90;37.20
13174;DHT22;6652;48.802;9.190;2023-04-06T09:43:50;24.10;37.60
13174;DHT22;6652;48.802;9.190;2023-04-06T09:46:17;24.30;36.90
13174;DHT22;6652;48.802;9.190;2023-04-06T09:48:47;24.20;35.70
13174;DHT22;6652;48.802;9.190;2023-04-06T09:51:16;23.60;35.90
13174;DHT22;6652;48.802;9.190;2023-04-06T09:53:45;23.80;36.70
13174;DHT22;6652;48.802;9.190;2023-04-06T09:56:17;24.20;36.90
13174;DHT22;6652;48.802;9.190;2023-04-06T09:58:50;24.30;36.20
13174;DHT22;6652;48.802;9.190;2023-04-06T10:01:21;24.10;36.10
13174;DHT22;6652;48.802;9.190;2023-04-06T10:03:58;24.20;36.10
13174;DHT22;6652;48.802;9.190;2023-04-06T10:06:31;24.00;35.70
13174;DHT22;6652;48.802;9.190;2023-04-06T10:09:02;24.20;37.30
13174;DHT22;6652;48.802;9.190;2023-04-06T10:11:29;24.20;36.00
13174;DHT22;6652;48.802;9.190;2023-04-06T10:13:58;23.90;34.60
13174;DHT22;6652;48.802;9.190;2023-04-06T10:16:25;23.60;35.40
13174;DHT22;6652;48.802;9.190;2023-04-06T10:18:56;23.40;35.20
13174;DHT22;6652;48.802;9.190;2023-04-06T10:21:26;22.90;35.40
13174;DHT22;6652;48.802;9.190;2023-04-06T10:23:58;22.40;35.50
13174;DHT22;6652;48.802;9.190;2023-04-06T10:26:25;21.50;36.20
13174;DHT22;6652;48.802;9.190;2023-04-06T10:28:52;21.50;36.60
13174;DHT22;6652;48.802;9.190;2023-04-06T10:31:26;21.40;37.80
13174;DHT22;6652;48.802;9.190;2023-04-06T10:33:56;21.60;37.10
13174;DHT22;6652;48.802;9.190;2023-04-06T10:36:25;21.80;37.50
13174;DHT22;6652;48.802;9.190;2023-04-06T10:38:56;21.20;36.60
13174;DHT22;6652;48.802;9.190;2023-04-06T10:41:25;21.00;37.80
13174;DHT22;6652;48.802;9.190;2023-04-06T10:43:59;21.10;38.50
13174;DHT22;6652;48.802;9.190;2023-04-06T10:46:29;21.40;38.90
13174;DHT22;6652;48.802;9.190;2023-04-06T10:48:56;20.10;37.90
13174;DHT22;6652;48.802;9.190;2023-04-06T10:51:28;18.70;39.10
13174;DHT22;6652;48.802;9.190;2023-04-06T10:53:55;17.50;39.90
13174;DHT22;6652;48.802;9.190;2023-04-06T10:56:24;16.50;41.80
13174;DHT22;6652;48.802;9.190;2023-04-06T10:58:54;16.20;42.70
13174;DHT22;6652;48.802;9.190;2023-04-06T11:01:23;16.00;42.80
13174;DHT22;6652;48.802;9.190;2023-04-06T11:03:54;15.50;42.10
13174;DHT22;6652;48.802;9.190;2023-04-06T11:06:24;15.30;42.30
13174;DHT22;6652;48.802;9.190;2023-04-06T11:08:52;15.40;43.80
13174;DHT22;6652;48.802;9.190;2023-04-06T11:11:21;15.50;43.00
13174;DHT22;6652;48.802;9.190;2023-04-06T11:13:51;15.40;43.00
13174;DHT22;6652;48.802;9.190;2023-04-06T11:16:20;15.50;43.10
13174;DHT22;6652;48.802;9.190;2023-04-06T11:18:48;15.50;44.00
13174;DHT22;6652;48.802;9.190;2023-04-06T11:21:17;15.30;42.90
13174;DHT22;6652;48.802;9.190;2023-04-06T11:23:44;15.10;43.10
13174;DHT22;6652;48.802;9.190;2023-04-06T11:26:11;14.90;43.50
13174;DHT22;6652;48.802;9.190;2023-04-06T11:28:40;14.80;43.60
13174;DHT22;6652;48.802;9.190;2023-04-06T11:31:07;14.60;43.90
13174;DHT22;6652;48.802;9.190;2023-04-06T11:33:35;14.60;43.50
13174;DHT22;6652;48.802;9.190;2023-04-06T11:36:03;14.60;44.70
13174;DHT22;6652;48.802;9.190;2023-04-06T11:38:32;14.90;44.40
13174;DHT22;6652;48.802;9.190;2023-04-06T11:41:00;14.80;42.60
13174;DHT22;6652;48.802;9.190;2023-04-06T11:43:28;14.90;43.30
13174;DHT22;6652;48.802;9.190;2023-04-06T11:46:00;14.90;42.70
13174;DHT22;6652;48.802;9.190;2023-04-06T11:48:28;15.00;42.90
13174;DHT22;6652;48.802;9.190;2023-04-06T11:50:59;15.00;43.40
13174;DHT22;6652;48.802;9.190;2023-04-06T11:53:27;15.10;44.20
13174;DHT22;6652;48.802;9.190;2023-04-06T11:55:56;15.10;42.20
13174;DHT22;6652;48.802;9.190;2023-04-06T11:58:25;14.90;42.50
13174;DHT22;6652;48.802;9.190;2023-04-06T12:00:52;14.80;42.50
13174;DHT22;6652;48.802;9.190;2023-04-06T12:03:19;14.80;43.20
13174;DHT22;6652;48.802;9.190;2023-04-06T12:05:46;14.70;42.80
13174;DHT22;6652;48.802;9.190;2023-04-06T12:08:13;14.70;43.40
13174;DHT22;6652;48.802;9.190;2023-04-06T12:10:44;14.80;42.90
13174;DHT22;6652;48.802;9.190;2023-04-06T12:13:14;14.60;43.40
13174;DHT22;6652;48.802;9.190;2023-04-06T12:15:41;14.50;43.60
13174;DHT22;6652;48.802;9.190;2023-04-06T12:18:08;14.90;44.70
13174;DHT22;6652;48.802;9.190;2023-04-06T12:20:35;15.20;44.00
13174;DHT22;6652;48.802;9.190;2023-04-06T12:23:02;15.50;44.10
13174;DHT22;6652;48.802;9.190;2023-04-06T12:25:29;15.70;43.20
13174;DHT22;6652;48.802;9.190;2023-04-06T12:27:56;15.60;43.00
13174;DHT22;6652;48.802;9.190;2023-04-06T12:30:24;15.60;42.70
13174;DHT22;6652;48.802;9.190;2023-04-06T12:32:51;15.50;42.00
13174;DHT22;6652;48.802;9.190;2023-04-06T12:35:18;15.50;42.60
13174;DHT22;6652;48.802;9.190;2023-04-06T12:37:46;15.60;41.90
13174;DHT22;6652;48.802;9.190;2023-04-06T12:40:13;15.50;42.00
13174;DHT22;6652;48.802;9.190;2023-04-06T12:42:40;15.50;42.70
13174;DHT22;6652;48.802;9.190;2023-04-06T12:45:08;15.50;42.80
13174;DHT22;6652;48.802;9.190;2023-04-06T12:47:36;15.50;43.50
13174;DHT22;6652;48.802;9.190;2023-04-06T12:50:04;15.60;42.90
13174;DHT22;6652;48.802;9.190;2023-04-06T12:52:32;15.50;42.10
13174;DHT22;6652;48.802;9.190;2023-04-06T12:55:00;15.50;43.40
13174;DHT22;6652;48.802;9.190;2023-04-06T12:57:28;15.50;43.20
13174;DHT22;6652;48.802;9.190;2023-04-06T12:59:55;15.30;42.50
13174;DHT22;6652;48.802;9.190;2023-04-06T13:02:22;15.30;43.00
13174;DHT22;6652;48.802;9.190;2023-04-06T13:04:50;15.30;43.20
13174;DHT22;6652;48.802;9.190;2023-04-06T13:07:17;15.40;42.50
13174;DHT22;6652;48.802;9.190;2023-04-06T13:09:44;15.50;43.40
13174;DHT22;6652;48.802;9.190;2023-04-06T13:12:12;15.70;43.20
13174;DHT22;6652;48.802;9.190;2023-04-06T13:14:39;15.40;42.00
13174;DHT22;6652;48.802;9.190;2023-04-06T13:17:08;15.20;42.80
13174;DHT22;6652;48.802;9.190;2023-04-06T13:19:35;15.00;43.20
13174;DHT22;6652;48.802;9.190;2023-04-06T13:22:03;15.00;44.00
13174;DHT22;6652;48.802;9.190;2023-04-06T13:24:30;15.10;43.80
13174;DHT22;6652;48.802;9.190;2023-04-06T13:26:57;15.00;43.10
13174;DHT22;6652;48.802;9.190;2023-04-06T13:29:24;15.20;44.10
13174;DHT22;6652;48.802;9.190;2023-04-06T13:31:51;15.50;44.70
13174;DHT22;6652;48.802;9.190;2023-04-06T13:34:18;15.70;44.50
13174;DHT22;6652;48.802;9.190;2023-04-06T13:36:45;15.80;43.20
13174;DHT22;6652;48.802;9.190;2023-04-06T13:39:13;15.50;42.20
13174;DHT22;6652;48.802;9.190;2023-04-06T13:41:40;15.50;43.50
13174;DHT22;6652;48.802;9.190;2023-04-06T13:44:07;15.50;42.80
13174;DHT22;6652;48.802;9.190;2023-04-06T13:46:34;15.50;42.70
13174;DHT22;6652;48.802;9.190;2023-04-06T13:49:01;15.50;43.10
13174;DHT22;6652;48.802;9.190;2023-04-06T13:51:28;15.50;43.10
13174;DHT22;6652;48.802;9.190;2023-04-06T13:53:56;15.40;43.30
13174;DHT22;6652;48.802;9.190;2023-04-06T13:56:24;15.60;43.10
13174;DHT22;6652;48.802;9.190;2023-04-06T13:58:53;15.80;43.40
13174;DHT22;6652;48.802;9.190;2023-04-06T14:01:21;15.60;42.70
13174;DHT22;6652;48.802;9.190;2023-04-06T14:03:48;15.50;42.10
13174;DHT22;6652;48.802;9.190;2023-04-06T14:06:16;15.30;42.40
13174;DHT22;6652;48.802;9.190;2023-04-06T14:08:43;15.30;42.70
13174;DHT22;6652;48.802;9.190;2023-04-06T14:11:11;15.30;43.20
13174;DHT22;6652;48.802;9.190;2023-04-06T14:13:39;15.30;42.80
13174;DHT22;6652;48.802;9.190;2023-04-06T14:16:07;15.40;42.80
13174;DHT22;6652;48.802;9.190;2023-04-06T14:18:34;15.50;42.40
13174;DHT22;6652;48.802;9.190;2023-04-06T14:21:01;15.70;42.40
13174;DHT22;6652;48.802;9.190;2023-04-06T14:23:28;15.80;42.50
13174;DHT22;6652;48.802;9.190;2023-04-06T14:26:01;15.80;42.40
13174;DHT22;6652;48.802;9.190;2023-04-06T14:28:29;15.80;42.40
13174;DHT22;6652;48.802;9.190;2023-04-06T14:30:58;15.70;42.90
13174;DHT22;6652;48.802;9.190;2023-04-06T14:33:25;15.80;42.70
13174;DHT22;6652;48.802;9.190;2023-04-06T14:35:52;15.70;42.00
13174;DHT22;6652;48.802;9.190;2023-04-06T14:38:19;15.70;42.80
13174;DHT22;6652;48.802;9.190;2023-04-06T14:40:46;15.80;42.20
13174;DHT22;6652;48.802;9.190;2023-04-06T14:43:12;15.80;42.20
13174;DHT22;6652;48.802;9.190;2023-04-06T14:45:40;15.60;41.60
13174;DHT22;6652;48.802;9.190;2023-04-06T14:48:08;15.30;42.20
13174;DHT22;6652;48.802;9.190;2023-04-06T14:50:37;15.40;42.30
13174;DHT22;6652;48.802;9.190;2023-04-06T14:53:04;15.30;42.00
13174;DHT22;6652;48.802;9.190;2023-04-06T14:55:31;15.20;42.20
13174;DHT22;6652;48.802;9.190;2023-04-06T14:57:59;15.20;42.50
13174;DHT22;6652;48.802;9.190;2023-04-06T15:00:26;15.20;42.20
13174;DHT22;6652;48.802;9.190;2023-04-06T15:02:53;15.10;42.40
13174;DHT22;6652;48.802;9.190;2023-04-06T15:05:21;15.10;42.60
13174;DHT22;6652;48.802;9.190;2023-04-06T15:07:48;15.40;43.40
13174;DHT22;6652;48.802;9.190;2023-04-06T15:10:15;15.30;43.30
13174;DHT22;6652;48.802;9.190;2023-04-06T15:12:41;15.30;43.00
13174;DHT22;6652;48.802;9.190;2023-04-06T15:15:09;15.20;43.20
13174;DHT22;6652;48.802;9.190;2023-04-06T15:17:37;15.20;43.20
13174;DHT22;6652;48.802;9.190;2023-04-06T15:20:05;15.30;43.30
13174;DHT22;6652;48.802;9.190;2023-04-06T15:22:34;15.30;43.10
13174;DHT22;6652;48.802;9.190;2023-04-06T15:25:01;15.30;43.10
13174;DHT22;6652;48.802;9.190;2023-04-06T15:27:27;15.10;43.10
13174;DHT22;6652;48.802;9.190;2023-04-06T15:29:55;15.00;43.50
13174;DHT22;6652;48.802;9.190;2023-04-06T15:32:23;14.90;43.40
13174;DHT22;6652;48.802;9.190;2023-04-06T15:34:50;14.90;43.50
13174;DHT22;6652;48.802;9.190;2023-04-06T15:37:17;14.80;43.80
13174;DHT22;6652;48.802;9.190;2023-04-06T15:39:46;14.80;43.60
13174;DHT22;6652;48.802;9.190;2023-04-06T15:42:12;14.70;43.60
13174;DHT22;6652;48.802;9.190;2023-04-06T15:44:39;14.70;43.90
13174;DHT22;6652;48.802;9.190;2023-04-06T15:47:06;14.70;44.40
13174;DHT22;6652;48.802;9.190;2023-04-06T15:49:33;14.70;43.60
13174;DHT22;6652;48.802;9.190;2023-04-06T15:52:00;14.80;43.60
13174;DHT22;6652;48.802;9.190;2023-04-06T15:54:27;14.90;44.10